Weather reports worldwide

Advertisment
Epinal, France (7173): temperature & dewpoint: 20.03.2019 08:00:00 - 26.03.2019 08:00:00 (CET)Epinal, France (7173): wind speed & gusts: 20.03.2019 08:00:00 - 26.03.2019 08:00:00 (CET)Epinal, France (7173): wind direction: 20.03.2019 08:00:00 - 26.03.2019 08:00:00 (CET)Epinal, France (7173): sunshine duration: 20.03.2019 08:00:00 - 26.03.2019 08:00:00 (CET)Epinal, France (7173): precipitation: 20.03.2019 08:00:00 - 26.03.2019 08:00:00 (CET)
Date & Time tt [°C] td [°C] ff [km/h] ff [kn] fx [km/h] fx [kn] dd sd [min] rr [mm]
26.03.2019 08:00:00 - - - - - - - - -
26.03.2019 07:00:00 3,0 0,7 8 4 13 7 N 0 -
26.03.2019 06:00:00 3,6 0,6 9 5 16 9 NNE 0 0,0
26.03.2019 05:00:00 3,7 0,7 8 4 18 10 N 0 0,0
26.03.2019 04:00:00 4,0 0,7 13 7 21 11 N 0 0,0
26.03.2019 03:00:00 4,3 0,8 13 7 21 11 N 0 0,0
26.03.2019 02:00:00 4,1 0,6 13 7 22 12 N 0 0,0
26.03.2019 01:00:00 5,1 0,7 15 8 28 15 N 0 -
26.03.2019 00:00:00 5,8 0,7 21 11 31 17 N 0 0,0
25.03.2019 23:00:00 5,9 0,4 16 9 28 15 NNW 0 0,0
25.03.2019 22:00:00 6,5 -0,3 21 11 29 16 NNW 0 0,0
25.03.2019 21:00:00 6,4 -1,0 15 8 29 16 NNW 0 0,0
25.03.2019 20:00:00 7,5 -1,5 16 9 37 20 NNW 0 0,0
25.03.2019 19:00:00 7,9 -1,6 21 11 35 19 NNW 12 -
25.03.2019 18:00:00 9,1 -2,8 18 10 46 25 N 60 0,0
25.03.2019 17:00:00 9,1 -2,8 26 14 41 22 NNW 24 0,0
25.03.2019 16:00:00 9,5 -3,5 21 11 34 18 NNW 12 0,0
25.03.2019 15:00:00 9,3 -2,7 21 11 37 20 NNW 30 0,0
25.03.2019 14:00:00 9,2 -2,4 26 14 41 22 NNW 36 0,0
25.03.2019 13:00:00 8,7 0,4 22 12 39 21 NNW 30 -
25.03.2019 12:00:00 7,9 0,8 18 10 34 18 NW 0 0,0
25.03.2019 11:00:00 7,2 1,1 18 10 28 15 NNW 0 0,0
25.03.2019 10:00:00 7,0 0,6 9 5 16 9 WNW 0 0,0
25.03.2019 09:00:00 5,4 0,9 5 3 11 6 WNW 18 0,0
25.03.2019 08:00:00 2,9 1,7 2 1 4 2 S 48 0,0
25.03.2019 07:00:00 -0,1 -0,4 2 1 4 2 SSE 0 -
25.03.2019 06:00:00 0,1 -0,3 4 2 5 3 S 0 0,0
25.03.2019 05:00:00 0,8 0,2 2 1 4 2 SE 0 0,0
25.03.2019 04:00:00 2,0 1,4 4 2 4 2 SE 0 0,0
25.03.2019 03:00:00 3,3 2,0 0 0 4 2 N 0 0,0
25.03.2019 02:00:00 4,4 3,4 0 0 2 1 N 0 0,0
25.03.2019 01:00:00 3,6 3,0 0 0 2 1 N 0 -
25.03.2019 00:00:00 3,5 2,6 0 0 4 2 N 0 0,0
24.03.2019 23:00:00 4,3 3,1 0 0 4 2 N 0 0,0
24.03.2019 22:00:00 5,4 3,2 0 0 4 2 N 0 0,0
24.03.2019 21:00:00 7,6 4,2 0 0 9 5 N 0 0,0
24.03.2019 20:00:00 9,7 4,7 8 4 15 8 N 0 0,0
24.03.2019 19:00:00 10,6 4,7 5 3 18 10 NNW 0 -
24.03.2019 18:00:00 12,8 4,2 11 6 18 10 NNW 48 0,0
24.03.2019 17:00:00 13,8 4,4 18 10 24 13 NNW 48 0,0
24.03.2019 16:00:00 14,6 4,8 15 8 22 12 NNW 48 0,0
24.03.2019 15:00:00 14,9 4,8 15 8 28 15 NW 48 0,0
24.03.2019 14:00:00 14,8 4,8 9 5 16 9 N 60 0,0
24.03.2019 13:00:00 14,0 4,8 9 5 18 10 NNW 60 -
24.03.2019 12:00:00 12,4 5,1 11 6 15 8 N 60 0,0
24.03.2019 11:00:00 9,8 4,6 8 4 11 6 NNW 60 0,0
24.03.2019 10:00:00 7,2 4,3 4 2 9 5 NNW 60 0,0
24.03.2019 09:00:00 5,2 2,7 2 1 4 2 N 60 0,0
24.03.2019 08:00:00 2,3 1,1 0 0 2 1 N 48 0,0
24.03.2019 07:00:00 -0,8 -1,1 2 1 4 2 SE 0 -
24.03.2019 06:00:00 -0,8 -1,2 0 0 4 2 N 0 0,0
24.03.2019 05:00:00 -0,3 -0,7 4 2 5 3 SE 0 0,0
24.03.2019 04:00:00 0,0 -0,7 0 0 4 2 N 0 0,0
24.03.2019 03:00:00 0,9 0,3 0 0 4 2 N 0 0,0
24.03.2019 02:00:00 1,4 0,2 0 0 4 2 N 0 0,0
24.03.2019 01:00:00 2,4 0,9 0 0 4 2 N 0 -
24.03.2019 00:00:00 3,6 1,8 2 1 4 2 ESE 0 0,0
23.03.2019 23:00:00 4,4 2,3 0 0 13 7 N 0 0,0
23.03.2019 22:00:00 5,4 2,0 2 1 4 2 SE 0 0,0
23.03.2019 21:00:00 7,4 2,5 2 1 4 2 SE 0 0,0
23.03.2019 20:00:00 9,6 2,4 4 2 8 4 ENE 0 0,0
23.03.2019 19:00:00 13,1 2,9 5 3 15 8 NE 24 -
23.03.2019 18:00:00 15,7 2,5 9 5 18 10 NNE 60 0,0
23.03.2019 17:00:00 16,8 3,1 9 5 21 11 NE 60 0,0
23.03.2019 16:00:00 17,2 2,7 9 5 16 9 NE 60 0,0
23.03.2019 15:00:00 17,2 3,5 8 4 18 10 NNW 60 0,0
23.03.2019 14:00:00 17,1 2,7 9 5 18 10 NW 60 0,0
23.03.2019 13:00:00 17,1 2,7 4 2 13 7 S 60 -
23.03.2019 12:00:00 15,5 1,6 4 2 16 9 NNW 60 0,0
23.03.2019 11:00:00 14,2 2,4 5 3 8 4 NNW 60 0,0
23.03.2019 10:00:00 12,8 4,2 0 0 2 1 N 60 0,0
23.03.2019 09:00:00 8,6 2,6 0 0 2 1 N 60 0,0
23.03.2019 08:00:00 4,3 1,5 0 0 4 2 N 48 0,0
23.03.2019 07:00:00 -0,3 -1,0 4 2 4 2 ESE 0 -
23.03.2019 06:00:00 -0,1 -0,8 2 1 4 2 ESE 0 0,0
23.03.2019 05:00:00 0,2 -0,8 2 1 4 2 SE 0 0,0
23.03.2019 04:00:00 0,9 -0,3 0 0 4 2 N 0 0,0
23.03.2019 03:00:00 1,5 0,0 2 1 4 2 E 0 0,0
23.03.2019 02:00:00 2,6 0,5 2 1 9 5 S 0 0,0
23.03.2019 01:00:00 2,5 0,6 0 0 4 2 N 0 -
23.03.2019 00:00:00 3,5 0,7 2 1 4 2 ESE 0 0,0
22.03.2019 23:00:00 4,5 1,2 0 0 4 2 N 0 0,0
22.03.2019 22:00:00 5,7 1,0 2 1 4 2 ESE 0 0,0
22.03.2019 21:00:00 6,8 1,3 0 0 8 4 N 0 0,0
22.03.2019 20:00:00 9,3 1,2 4 2 8 4 S 0 0,0
22.03.2019 19:00:00 12,5 1,5 2 1 11 6 W 24 -
22.03.2019 18:00:00 16,2 0,7 9 5 15 8 W 60 0,0
22.03.2019 17:00:00 18,1 1,1 8 4 16 9 W 60 0,0
22.03.2019 16:00:00 17,9 -0,4 8 4 18 10 W 60 0,0
22.03.2019 15:00:00 17,5 -0,8 9 5 21 11 WSW 60 0,0
22.03.2019 14:00:00 17,2 -0,1 11 6 26 14 SW 60 0,0
22.03.2019 13:00:00 17,1 1,1 4 2 18 10 SE 60 -
22.03.2019 12:00:00 15,9 1,6 4 2 9 5 NNW 60 0,0
22.03.2019 11:00:00 13,6 0,6 4 2 8 4 NNW 60 0,0
22.03.2019 10:00:00 11,6 0,9 2 1 4 2 S 60 0,0
22.03.2019 09:00:00 7,7 0,9 0 0 4 2 N 60 0,0
22.03.2019 08:00:00 3,3 -0,3 0 0 2 1 N 48 0,0
22.03.2019 07:00:00 -1,6 -2,4 2 1 4 2 S 0 -
22.03.2019 06:00:00 -1,7 -2,7 2 1 5 3 ESE 0 0,0
22.03.2019 05:00:00 -1,5 -2,5 2 1 4 2 ESE 0 0,0
22.03.2019 04:00:00 -1,4 -2,4 0 0 4 2 N 0 0,0
22.03.2019 03:00:00 -0,7 -2,1 0 0 5 3 N 0 0,0
22.03.2019 02:00:00 -0,6 -1,9 2 1 4 2 E 0 0,0
22.03.2019 01:00:00 0,3 -1,8 4 2 4 2 ESE 0 -
22.03.2019 00:00:00 1,2 -1,5 2 1 5 3 SE 0 0,0
21.03.2019 23:00:00 2,0 -1,1 0 0 4 2 N 0 0,0
21.03.2019 22:00:00 3,8 -1,0 4 2 5 3 SE 0 0,0
21.03.2019 21:00:00 5,1 -0,3 0 0 9 5 N 0 0,0
21.03.2019 20:00:00 8,3 -0,7 0 0 9 5 N 0 0,0
21.03.2019 19:00:00 11,5 -1,3 4 2 24 13 NNE 18 -
21.03.2019 18:00:00 13,8 -0,7 16 9 29 16 N 60 0,0
21.03.2019 17:00:00 14,9 -0,1 18 10 34 18 N 60 0,0
21.03.2019 16:00:00 15,3 -1,8 18 10 29 16 N 60 0,0
21.03.2019 15:00:00 15,2 -1,8 18 10 34 18 N 60 0,0
21.03.2019 14:00:00 15,3 -0,9 15 8 35 19 N 60 0,0
21.03.2019 13:00:00 14,2 -6,7 21 11 34 18 NNE 60 -
21.03.2019 12:00:00 12,8 -1,9 16 9 29 16 NNE 60 0,0
21.03.2019 11:00:00 10,7 -2,4 9 5 21 11 NE 60 0,0
21.03.2019 10:00:00 8,3 -0,2 2 1 8 4 WNW 60 0,0
21.03.2019 09:00:00 4,6 -0,8 2 1 5 3 NW 60 0,0
21.03.2019 08:00:00 1,3 -1,3 0 0 4 2 N 48 0,0
21.03.2019 07:00:00 -2,3 -3,3 4 2 8 4 SE 0 -
21.03.2019 06:00:00 -2,7 -3,8 2 1 4 2 N 0 0,0
21.03.2019 05:00:00 -2,1 -3,1 2 1 4 2 E 0 0,0
21.03.2019 04:00:00 -2,2 -3,5 0 0 4 2 N 0 0,0
21.03.2019 03:00:00 -1,9 -3,5 0 0 4 2 N 0 0,0
21.03.2019 02:00:00 -1,2 -3,4 2 1 4 2 E 0 0,0
21.03.2019 01:00:00 -0,7 -3,4 0 0 4 2 N 0 -
21.03.2019 00:00:00 0,0 -3,4 0 0 4 2 N 0 0,0
20.03.2019 23:00:00 1,1 -3,2 0 0 2 1 N 0 0,0
20.03.2019 22:00:00 2,4 -3,3 2 1 9 5 E 0 0,0
20.03.2019 21:00:00 5,1 -4,0 5 3 9 5 NE 0 0,0
20.03.2019 20:00:00 6,7 -5,3 5 3 11 6 ENE 0 0,0
20.03.2019 19:00:00 9,3 -6,6 9 5 29 16 NNE 18 -
20.03.2019 18:00:00 10,8 -5,3 16 9 29 16 NNE 60 0,0
20.03.2019 17:00:00 11,9 -3,5 18 10 34 18 NNE 60 0,0
20.03.2019 16:00:00 12,2 -2,8 15 8 31 17 N 60 0,0
20.03.2019 15:00:00 12,0 -1,5 16 9 35 19 N 60 0,0
20.03.2019 14:00:00 11,9 -1,0 15 8 28 15 N 60 0,0
20.03.2019 13:00:00 10,8 -1,9 15 8 28 15 NNE 60 -
20.03.2019 12:00:00 10,4 -1,3 15 8 26 14 NNE 60 0,0
20.03.2019 11:00:00 8,6 -0,2 13 7 16 9 NNE 60 0,0
20.03.2019 10:00:00 5,6 0,9 2 1 8 4 N 60 0,0
20.03.2019 09:00:00 2,2 -0,4 2 1 4 2 N 60 0,0
20.03.2019 08:00:00 0,8 0,1 0 0 4 2 N 48 0,0

tt = temperature
td = dewpoint
ff = wind speed
fx = gusts
dd = wind direction
sd = sunshine duration
rr = precipitation

Next stations